Time;durP1;ratioP1;P1;durP2;ratioP2;P2;SDS_P1;SDS_P2;PMS_P1;PMS_P2;Temp;Humidity;BMP_temperature;BMP_pressure;BME280_temperature;BME280_humidity;BME280_pressure;Samples;Min_cycle;Max_cycle;Signal;HPM_P1;HPM_P2
2024/03/01 00:01:39;;;;;;;2.00;1.85;;;;;;;;;;5017780;28;59423;-76
2024/03/01 00:04:04;;;;;;;2.08;1.88;;;;;;;;;;5027475;28;59136;-76
2024/03/01 00:06:29;;;;;;;1.93;1.60;;;;;;;;;;5023370;28;59342;-76
2024/03/01 00:08:55;;;;;;;1.83;1.73;;;;;;;;;;5013607;28;60441;-75
2024/03/01 00:11:20;;;;;;;1.85;1.73;;;;;;;;;;5016447;28;59184;-76
2024/03/01 00:13:45;;;;;;;1.48;1.38;;;;;;;;;;5027479;28;59272;-76
2024/03/01 00:16:11;;;;;;;1.97;1.77;;;;;;;;;;5022168;28;59270;-75
2024/03/01 00:18:36;;;;;;;1.97;1.87;;;;;;;;;;5019232;28;59291;-75
2024/03/01 00:21:01;;;;;;;2.42;2.22;;;;;;;;;;5018200;28;60108;-76
2024/03/01 00:23:29;;;;;;;1.67;1.58;;;;;;;;;;5013333;28;59917;-76
2024/03/01 00:25:54;;;;;;;;;;;;;;;;;;5007898;28;59291;-75
2024/03/01 00:28:20;;;;;;;2.63;1.90;;;;;;;;;;5015355;28;60322;-75
2024/03/01 00:30:45;;;;;;;2.30;2.10;;;;;;;;;;5022387;28;59222;-75
2024/03/01 00:33:10;;;;;;;2.00;1.83;;;;;;;;;;5026970;28;59365;-75
2024/03/01 00:35:35;;;;;;;1.70;1.60;;;;;;;;;;5027915;28;60254;-75
2024/03/01 00:38:01;;;;;;;1.75;1.65;;;;;;;;;;5027492;28;59327;-76
2024/03/01 00:40:26;;;;;;;2.67;2.47;;;;;;;;;;5016645;28;60966;-75
2024/03/01 00:42:51;;;;;;;2.17;1.98;;;;;;;;;;5023636;28;59146;-75
2024/03/01 00:45:16;;;;;;;2.27;1.77;;;;;;;;;;5023642;28;59708;-76
2024/03/01 00:47:49;;;;;;;2.30;2.10;;;;;;;;;;5015717;28;60460;-76
2024/03/01 00:50:20;;;;;;;2.85;2.65;;;;;;;;;;5013173;28;59430;-75
2024/03/01 00:52:46;;;;;;;2.33;1.77;;;;;;;;;;5025158;28;59463;-74
2024/03/01 00:55:11;;;;;;;1.80;1.70;;;;;;;;;;5019584;28;61933;-74
2024/03/01 00:57:36;;;;;;;2.35;1.65;;;;;;;;;;5017832;28;59352;-74
2024/03/01 01:00:03;;;;;;;2.40;2.20;;;;;;;;;;5017278;28;59953;-74
2024/03/01 01:02:28;;;;;;;2.17;1.98;;;;;;;;;;5014569;28;59242;-74
2024/03/01 01:04:53;;;;;;;2.23;1.73;;;;;;;;;;5020355;28;59227;-74
2024/03/01 01:07:19;;;;;;;2.30;2.10;;;;;;;;;;5015259;28;60008;-74
2024/03/01 01:09:44;;;;;;;2.67;2.25;;;;;;;;;;5011769;28;59313;-74
2024/03/01 01:12:10;;;;;;;2.33;2.13;;;;;;;;;;5009495;28;59233;-74
2024/03/01 01:14:36;;;;;;;2.47;1.88;;;;;;;;;;5015684;28;59898;-74
2024/03/01 01:17:01;;;;;;;1.95;1.85;;;;;;;;;;5015093;28;59163;-74
2024/03/01 01:19:26;;;;;;;2.27;2.07;;;;;;;;;;5019529;28;59199;-74
2024/03/01 01:21:51;;;;;;;2.13;1.93;;;;;;;;;;5012608;28;59441;-74
2024/03/01 01:24:16;;;;;;;2.17;2.00;;;;;;;;;;5020193;28;59292;-75
2024/03/01 01:26:42;;;;;;;2.00;1.80;;;;;;;;;;5026991;28;61355;-74
2024/03/01 01:29:07;;;;;;;2.22;2.05;;;;;;;;;;5027164;28;59880;-74
2024/03/01 01:31:32;;;;;;;2.25;2.08;;;;;;;;;;5017188;28;59167;-74
2024/03/01 01:33:57;;;;;;;1.97;1.77;;;;;;;;;;5019934;28;60764;-74
2024/03/01 01:36:22;;;;;;;1.80;1.60;;;;;;;;;;5025290;28;59394;-76
2024/03/01 01:38:47;;;;;;;2.43;2.23;;;;;;;;;;5020089;28;59354;-75
2024/03/01 01:41:12;;;;;;;2.25;2.05;;;;;;;;;;5030139;28;59687;-75
2024/03/01 01:43:42;;;;;;;1.80;1.70;;;;;;;;;;5030094;28;59368;-75
2024/03/01 01:46:07;;;;;;;1.77;1.67;;;;;;;;;;5029277;28;59551;-75
2024/03/01 01:48:32;;;;;;;2.80;2.60;;;;;;;;;;5027978;28;59363;-76
2024/03/01 01:50:58;;;;;;;1.73;1.63;;;;;;;;;;5026822;28;59402;-75
2024/03/01 01:53:23;;;;;;;1.88;1.77;;;;;;;;;;5020628;28;60045;-76
2024/03/01 01:55:48;;;;;;;2.43;2.23;;;;;;;;;;5018885;28;59998;-75
2024/03/01 01:58:14;;;;;;;2.50;2.30;;;;;;;;;;5028713;28;60883;-75
2024/03/01 02:00:39;;;;;;;1.75;1.65;;;;;;;;;;5031773;28;61109;-77
2024/03/01 02:03:04;;;;;;;2.47;2.27;;;;;;;;;;5027642;28;59414;-76
2024/03/01 02:05:30;;;;;;;2.57;2.10;;;;;;;;;;5018303;28;61527;-76
2024/03/01 02:07:55;;;;;;;2.20;1.97;;;;;;;;;;5031281;28;59245;-76
2024/03/01 02:10:22;;;;;;;1.60;1.50;;;;;;;;;;5028571;28;59586;-77
2024/03/01 02:12:53;;;;;;;1.98;1.88;;;;;;;;;;5030004;28;60271;-77
2024/03/01 02:15:19;;;;;;;2.03;1.80;;;;;;;;;;5024884;28;60669;-77
2024/03/01 02:17:44;;;;;;;2.22;2.03;;;;;;;;;;5021881;28;59172;-77
2024/03/01 02:20:10;;;;;;;2.15;1.95;;;;;;;;;;5017421;28;60306;-76
2024/03/01 02:22:36;;;;;;;1.70;1.60;;;;;;;;;;5030022;28;59298;-75
2024/03/01 02:25:02;;;;;;;2.53;2.33;;;;;;;;;;5020976;28;60885;-75
2024/03/01 02:27:27;;;;;;;2.30;1.97;;;;;;;;;;5026286;28;59435;-75
2024/03/01 02:29:52;;;;;;;2.85;2.33;;;;;;;;;;5030686;27;59450;-75
2024/03/01 02:32:17;;;;;;;2.25;1.90;;;;;;;;;;5033609;28;60039;-75
2024/03/01 02:34:42;;;;;;;2.10;1.90;;;;;;;;;;5029538;27;59248;-75
2024/03/01 02:37:08;;;;;;;2.30;2.10;;;;;;;;;;5020443;28;59208;-75
2024/03/01 02:39:33;;;;;;;2.00;1.80;;;;;;;;;;5016483;28;60426;-75
2024/03/01 02:41:58;;;;;;;2.40;2.20;;;;;;;;;;5017722;28;59267;-74
2024/03/01 02:44:23;;;;;;;2.40;2.20;;;;;;;;;;5031487;28;59288;-75
2024/03/01 02:46:48;;;;;;;1.85;1.75;;;;;;;;;;5018578;28;59071;-75
2024/03/01 02:49:13;;;;;;;2.20;2.00;;;;;;;;;;5025336;28;59113;-75
2024/03/01 02:51:40;;;;;;;2.20;2.00;;;;;;;;;;5029239;27;60908;-75
2024/03/01 02:54:05;;;;;;;2.10;1.90;;;;;;;;;;5027034;28;59395;-75
2024/03/01 02:56:30;;;;;;;2.27;2.07;;;;;;;;;;5030959;28;59209;-75
2024/03/01 02:58:55;;;;;;;2.60;2.40;;;;;;;;;;5030623;28;59500;-75
2024/03/01 03:01:22;;;;;;;2.65;2.45;;;;;;;;;;5022015;28;59236;-75
2024/03/01 03:03:48;;;;;;;1.90;1.80;;;;;;;;;;5027175;28;59332;-75
2024/03/01 03:06:13;;;;;;;1.97;1.83;;;;;;;;;;5029150;28;60305;-75
2024/03/01 03:08:38;;;;;;;2.20;2.00;;;;;;;;;;5028948;28;59180;-76
2024/03/01 03:11:03;;;;;;;2.60;2.40;;;;;;;;;;5017960;28;59909;-76
2024/03/01 03:13:29;;;;;;;2.45;2.25;;;;;;;;;;5017562;28;59617;-77
2024/03/01 03:15:54;;;;;;;2.45;2.25;;;;;;;;;;5026530;28;59189;-76
2024/03/01 03:18:19;;;;;;;1.83;1.70;;;;;;;;;;5026367;28;60250;-76
2024/03/01 03:20:45;;;;;;;2.17;1.95;;;;;;;;;;5028721;28;59215;-76
2024/03/01 03:23:10;;;;;;;2.95;2.65;;;;;;;;;;5029116;28;59311;-76
2024/03/01 03:25:36;;;;;;;2.35;2.05;;;;;;;;;;5028844;28;59162;-77
2024/03/01 03:28:01;;;;;;;2.28;2.08;;;;;;;;;;5027827;27;59247;-76
2024/03/01 03:30:26;;;;;;;2.50;2.30;;;;;;;;;;5030111;28;60257;-77
2024/03/01 03:32:51;;;;;;;2.35;2.05;;;;;;;;;;5026233;28;59449;-76
2024/03/01 03:35:16;;;;;;;2.43;2.23;;;;;;;;;;5018510;28;59551;-77
2024/03/01 03:37:42;;;;;;;2.65;2.45;;;;;;;;;;5016527;28;59881;-77
2024/03/01 03:40:16;;;;;;;1.87;1.67;;;;;;;;;;5023089;28;59318;-77
2024/03/01 03:42:42;;;;;;;2.17;1.92;;;;;;;;;;5030627;27;59307;-77
2024/03/01 03:45:07;;;;;;;2.60;2.35;;;;;;;;;;5029782;27;60244;-77
2024/03/01 03:47:38;;;;;;;2.10;1.90;;;;;;;;;;5027713;28;59235;-77
2024/03/01 03:50:07;;;;;;;3.47;3.17;;;;;;;;;;5016946;28;60165;-76
2024/03/01 03:52:34;;;;;;;2.83;2.58;;;;;;;;;;5016356;28;59256;-77
2024/03/01 03:54:59;;;;;;;2.67;2.47;;;;;;;;;;5022697;28;59350;-76
2024/03/01 03:57:24;;;;;;;2.50;2.30;;;;;;;;;;5028212;28;61116;-76
2024/03/01 03:59:49;;;;;;;2.35;2.15;;;;;;;;;;5026129;28;59494;-77
2024/03/01 04:02:14;;;;;;;2.78;2.58;;;;;;;;;;5017045;28;59279;-76
2024/03/01 04:04:39;;;;;;;2.72;2.53;;;;;;;;;;5027294;28;59257;-76
2024/03/01 04:07:04;;;;;;;2.45;2.25;;;;;;;;;;5027241;28;59302;-76
2024/03/01 04:09:30;;;;;;;2.72;2.53;;;;;;;;;;5028867;28;59249;-77
2024/03/01 04:11:56;;;;;;;2.73;2.47;;;;;;;;;;5024771;28;59222;-75
2024/03/01 04:14:21;;;;;;;2.65;2.33;;;;;;;;;;5029591;28;59298;-75
2024/03/01 04:16:46;;;;;;;3.00;2.80;;;;;;;;;;5028162;28;60218;-75
2024/03/01 04:19:11;;;;;;;2.45;2.25;;;;;;;;;;5021818;28;59305;-75
2024/03/01 04:21:37;;;;;;;2.58;2.38;;;;;;;;;;5019981;28;59266;-76
2024/03/01 04:24:08;;;;;;;2.58;2.38;;;;;;;;;;5026382;28;59587;-75
2024/03/01 04:26:34;;;;;;;3.33;3.03;;;;;;;;;;5019367;28;59238;-75
2024/03/01 04:28:59;;;;;;;2.90;2.40;;;;;;;;;;5029236;28;59195;-75
2024/03/01 04:31:24;;;;;;;2.40;2.17;;;;;;;;;;5020067;28;59883;-75
2024/03/01 04:33:50;;;;;;;2.17;1.97;;;;;;;;;;5022647;28;59177;-76
2024/03/01 04:36:15;;;;;;;2.25;2.05;;;;;;;;;;5026251;28;59196;-75
2024/03/01 04:38:40;;;;;;;2.58;2.25;;;;;;;;;;5014570;28;59303;-75
2024/03/01 04:41:05;;;;;;;2.50;2.30;;;;;;;;;;5015088;28;59222;-75
2024/03/01 04:43:31;;;;;;;2.83;2.63;;;;;;;;;;5028080;28;60359;-75
2024/03/01 04:45:56;;;;;;;3.17;2.88;;;;;;;;;;5026061;28;59330;-75
2024/03/01 04:48:21;;;;;;;2.42;2.22;;;;;;;;;;5031146;28;59273;-75
2024/03/01 04:50:46;;;;;;;3.20;2.90;;;;;;;;;;5025837;28;60280;-75
2024/03/01 04:53:11;;;;;;;2.50;2.30;;;;;;;;;;5029080;28;59179;-75
2024/03/01 04:55:36;;;;;;;3.10;2.90;;;;;;;;;;5024660;28;59309;-75
2024/03/01 04:58:01;;;;;;;3.37;3.07;;;;;;;;;;5026156;28;59212;-75
2024/03/01 05:00:27;;;;;;;3.00;2.80;;;;;;;;;;5026149;28;59506;-75
2024/03/01 05:02:53;;;;;;;4.10;3.03;;;;;;;;;;5025425;28;59389;-76
2024/03/01 05:05:22;;;;;;;3.83;3.42;;;;;;;;;;5014045;28;59206;-76
2024/03/01 05:07:48;;;;;;;3.28;2.97;;;;;;;;;;5014508;28;59392;-75
2024/03/01 05:10:13;;;;;;;3.47;3.17;;;;;;;;;;5014389;28;60097;-75
2024/03/01 05:12:39;;;;;;;3.55;3.10;;;;;;;;;;5020401;28;59481;-75
2024/03/01 05:15:05;;;;;;;2.92;2.65;;;;;;;;;;5026962;28;59063;-75
2024/03/01 05:17:31;;;;;;;2.70;2.45;;;;;;;;;;5025190;28;59210;-76
2024/03/01 05:19:56;;;;;;;2.72;2.35;;;;;;;;;;5014561;28;59320;-76
2024/03/01 05:22:23;;;;;;;3.28;2.97;;;;;;;;;;5024731;28;59262;-75
2024/03/01 05:24:49;;;;;;;2.70;2.42;;;;;;;;;;5018640;28;59955;-76
2024/03/01 05:27:14;;;;;;;3.25;2.92;;;;;;;;;;5013876;28;59184;-75
2024/03/01 05:29:39;;;;;;;2.63;2.43;;;;;;;;;;5015379;28;59773;-75
2024/03/01 05:32:05;;;;;;;3.08;2.80;;;;;;;;;;5015096;28;59282;-77
2024/03/01 05:34:30;;;;;;;3.65;3.03;;;;;;;;;;5021738;28;59172;-76
2024/03/01 05:36:55;;;;;;;3.23;2.50;;;;;;;;;;5024308;28;59437;-80
2024/03/01 05:39:21;;;;;;;3.30;2.57;;;;;;;;;;5020765;28;59277;-80
2024/03/01 05:41:46;;;;;;;3.37;3.07;;;;;;;;;;5012484;28;60424;-80
2024/03/01 05:44:13;;;;;;;2.90;2.47;;;;;;;;;;5012601;28;59312;-79
2024/03/01 05:46:39;;;;;;;3.80;2.80;;;;;;;;;;5014746;28;59325;-80
2024/03/01 05:49:04;;;;;;;4.70;3.22;;;;;;;;;;5009299;28;60268;-80
2024/03/01 05:51:29;;;;;;;5.65;3.33;;;;;;;;;;5012766;28;59333;-83
2024/03/01 05:53:56;;;;;;;6.00;3.03;;;;;;;;;;5004215;28;59305;-82
2024/03/01 05:56:22;;;;;;;6.55;3.75;;;;;;;;;;5006079;28;60106;-82
2024/03/01 05:58:47;;;;;;;4.85;3.65;;;;;;;;;;5005141;28;59365;-82
2024/03/01 06:01:12;;;;;;;7.90;5.17;;;;;;;;;;5015654;28;61119;-81
2024/03/01 06:03:38;;;;;;;8.33;5.47;;;;;;;;;;5021716;28;59404;-81
2024/03/01 06:06:04;;;;;;;8.48;6.47;;;;;;;;;;5018583;28;59396;-82
2024/03/01 06:08:29;;;;;;;6.85;4.75;;;;;;;;;;5016429;28;61024;-82
2024/03/01 06:10:54;;;;;;;8.55;5.47;;;;;;;;;;5013166;28;59382;-81
2024/03/01 06:13:19;;;;;;;8.37;5.23;;;;;;;;;;5023080;28;59309;-82
2024/03/01 06:15:45;;;;;;;6.25;5.25;;;;;;;;;;5026393;28;59256;-82
2024/03/01 06:18:10;;;;;;;14.38;5.57;;;;;;;;;;5026432;28;59210;-82
2024/03/01 06:20:35;;;;;;;7.43;4.70;;;;;;;;;;5025816;28;60312;-82
2024/03/01 06:23:00;;;;;;;7.72;5.30;;;;;;;;;;5011804;28;59512;-82
2024/03/01 06:25:26;;;;;;;9.20;5.40;;;;;;;;;;5025347;28;58745;-82
2024/03/01 06:27:51;;;;;;;10.07;5.18;;;;;;;;;;5031956;28;60110;-82
2024/03/01 06:30:16;;;;;;;11.77;5.05;;;;;;;;;;5030688;28;59471;-82
2024/03/01 06:32:43;;;;;;;11.10;6.13;;;;;;;;;;5028498;28;59253;-82
2024/03/01 06:35:08;;;;;;;6.95;4.55;;;;;;;;;;5018924;28;59629;-82
2024/03/01 06:37:35;;;;;;;9.40;5.82;;;;;;;;;;5027771;28;59216;-82
2024/03/01 06:40:04;;;;;;;9.38;5.80;;;;;;;;;;5022838;28;59741;-82
2024/03/01 06:42:30;;;;;;;11.10;5.40;;;;;;;;;;5015243;28;59227;-79
2024/03/01 06:44:55;;;;;;;9.80;5.45;;;;;;;;;;5022611;28;59251;-79
2024/03/01 06:47:20;;;;;;;15.17;5.47;;;;;;;;;;5029352;28;59548;-80
2024/03/01 06:49:45;;;;;;;14.82;6.95;;;;;;;;;;5030420;28;59284;-79
2024/03/01 06:52:11;;;;;;;8.98;5.57;;;;;;;;;;5021499;28;59145;-79
2024/03/01 06:54:36;;;;;;;13.57;7.07;;;;;;;;;;5016065;28;60985;-79
2024/03/01 06:57:01;;;;;;;11.67;7.37;;;;;;;;;;5019780;28;59207;-80
2024/03/01 06:59:26;;;;;;;10.88;5.05;;;;;;;;;;5031105;28;59081;-79
2024/03/01 07:01:51;;;;;;;11.47;6.07;;;;;;;;;;5029281;28;60945;-79
2024/03/01 07:04:17;;;;;;;12.43;5.43;;;;;;;;;;5019926;28;59439;-80
2024/03/01 07:06:42;;;;;;;8.82;4.82;;;;;;;;;;5019601;28;60885;-79
2024/03/01 07:09:07;;;;;;;7.03;5.40;;;;;;;;;;5020090;28;59345;-79
2024/03/01 07:11:32;;;;;;;9.02;5.10;;;;;;;;;;5030647;28;59167;-79
2024/03/01 07:13:57;;;;;;;8.77;5.73;;;;;;;;;;5021175;28;61132;-79
2024/03/01 07:16:23;;;;;;;7.03;4.10;;;;;;;;;;5019461;28;59330;-79
2024/03/01 07:18:48;;;;;;;11.90;5.40;;;;;;;;;;5019160;28;59224;-79
2024/03/01 07:21:13;;;;;;;9.77;5.77;;;;;;;;;;5020248;28;60114;-79
2024/03/01 07:23:38;;;;;;;7.60;5.20;;;;;;;;;;5030383;28;59380;-79
2024/03/01 07:26:03;;;;;;;9.50;6.38;;;;;;;;;;5029518;28;61707;-79
2024/03/01 07:28:28;;;;;;;9.10;5.15;;;;;;;;;;5028116;28;59435;-79
2024/03/01 07:30:54;;;;;;;7.95;5.50;;;;;;;;;;5021843;28;59198;-79
2024/03/01 07:33:19;;;;;;;12.25;5.22;;;;;;;;;;5019467;28;60902;-79
2024/03/01 07:35:44;;;;;;;7.67;5.50;;;;;;;;;;5025691;28;59353;-79
2024/03/01 07:38:09;;;;;;;7.95;5.10;;;;;;;;;;5020968;28;59323;-79
2024/03/01 07:40:34;;;;;;;8.20;5.50;;;;;;;;;;5016126;28;59651;-81
2024/03/01 07:42:59;;;;;;;9.73;5.93;;;;;;;;;;5020846;28;59452;-81
2024/03/01 07:45:25;;;;;;;9.55;5.65;;;;;;;;;;5018705;28;59306;-81
2024/03/01 07:47:50;;;;;;;7.77;5.43;;;;;;;;;;5018471;28;59513;-81
2024/03/01 07:50:15;;;;;;;6.70;3.67;;;;;;;;;;5028304;28;59255;-81
2024/03/01 07:52:40;;;;;;;7.97;4.90;;;;;;;;;;5030115;28;60192;-82
2024/03/01 07:55:06;;;;;;;7.15;4.97;;;;;;;;;;5021044;28;59913;-82
2024/03/01 07:57:31;;;;;;;6.10;4.07;;;;;;;;;;5015573;28;59237;-81
2024/03/01 07:59:56;;;;;;;8.38;5.15;;;;;;;;;;5017359;28;59774;-81
2024/03/01 08:02:21;;;;;;;8.63;4.15;;;;;;;;;;5030459;28;59272;-81
2024/03/01 08:04:46;;;;;;;7.68;4.82;;;;;;;;;;5017596;28;59312;-81
2024/03/01 08:07:13;;;;;;;7.75;4.85;;;;;;;;;;5024500;28;59717;-82
2024/03/01 08:09:40;;;;;;;10.05;5.53;;;;;;;;;;5023514;28;59109;-81
2024/03/01 08:12:09;;;;;;;6.03;3.70;;;;;;;;;;5019834;28;60148;-81
2024/03/01 08:14:34;;;;;;;7.47;4.63;;;;;;;;;;5026924;28;59757;-81
2024/03/01 08:17:00;;;;;;;7.35;4.70;;;;;;;;;;5029541;28;58562;-81
2024/03/01 08:19:35;;;;;;;7.10;4.60;;;;;;;;;;5023553;28;61052;-81
2024/03/01 08:22:17;;;;;;;9.82;4.55;;;;;;;;;;5018769;28;59233;-82
2024/03/01 08:24:42;;;;;;;7.07;4.53;;;;;;;;;;5021973;28;59159;-81
2024/03/01 08:27:09;;;;;;;9.75;3.95;;;;;;;;;;5026482;28;60039;-81
2024/03/01 08:29:35;;;;;;;5.60;4.00;;;;;;;;;;5018772;28;59270;-81
2024/03/01 08:32:00;;;;;;;6.30;3.40;;;;;;;;;;5018067;28;59258;-82
2024/03/01 08:34:30;;;;;;;8.57;3.80;;;;;;;;;;5026341;28;59254;-81
2024/03/01 08:36:55;;;;;;;4.70;3.67;;;;;;;;;;5028811;28;59311;-80
2024/03/01 08:39:25;;;;;;;5.32;4.32;;;;;;;;;;5028329;28;61215;-81
2024/03/01 08:41:51;;;;;;;4.30;3.70;;;;;;;;;;5025488;28;59174;-82
2024/03/01 08:44:22;;;;;;;5.22;3.95;;;;;;;;;;5018672;28;59077;-81
2024/03/01 08:46:47;;;;;;;4.63;3.55;;;;;;;;;;5027424;28;60184;-81
2024/03/01 08:49:45;;;;;;;5.63;3.33;;;;;;;;;;5028654;28;59393;-81
2024/03/01 08:52:16;;;;;;;3.67;3.38;;;;;;;;;;5021021;28;60193;-81
2024/03/01 08:54:42;;;;;;;4.55;3.30;;;;;;;;;;5012028;28;59301;-82
2024/03/01 08:57:20;;;;;;;6.47;3.80;;;;;;;;;;5016075;28;59261;-82
2024/03/01 08:59:45;;;;;;;4.28;3.28;;;;;;;;;;5018412;28;59780;-82
2024/03/01 09:02:33;;;;;;;6.60;3.97;;;;;;;;;;5028911;28;60318;-81
2024/03/01 09:04:58;;;;;;;;;;;;;;;;;;5027301;28;59563;-80
2024/03/01 09:07:27;;;;;;;3.80;3.22;;;;;;;;;;5025621;28;61168;-81
2024/03/01 09:09:52;;;;;;;4.05;3.53;;;;;;;;;;5027655;27;59425;-81
2024/03/01 09:12:20;;;;;;;3.72;3.00;;;;;;;;;;5027916;28;59193;-81
2024/03/01 09:14:45;;;;;;;3.72;3.03;;;;;;;;;;5023852;28;59148;-80
2024/03/01 09:17:12;;;;;;;4.07;3.20;;;;;;;;;;5018574;28;59251;-80
2024/03/01 09:19:40;;;;;;;4.70;4.13;;;;;;;;;;5018845;28;59339;-80
2024/03/01 09:22:05;;;;;;;4.00;3.60;;;;;;;;;;5014834;28;59395;-81
2024/03/01 09:24:34;;;;;;;3.53;3.17;;;;;;;;;;5011147;28;59228;-80
2024/03/01 09:27:02;;;;;;;4.88;3.45;;;;;;;;;;5020714;28;60396;-80
2024/03/01 09:29:35;;;;;;;3.45;3.15;;;;;;;;;;5025781;28;59244;-80
2024/03/01 09:32:01;;;;;;;3.88;2.90;;;;;;;;;;5024892;28;59423;-81
2024/03/01 09:34:31;;;;;;;4.88;3.15;;;;;;;;;;5018620;28;61012;-81
2024/03/01 09:36:56;;;;;;;3.30;3.05;;;;;;;;;;5022966;28;59304;-80
2024/03/01 09:39:22;;;;;;;3.97;3.10;;;;;;;;;;5026900;28;60154;-81
2024/03/01 09:41:59;;;;;;;3.60;2.78;;;;;;;;;;5024896;28;59436;-80
2024/03/01 09:44:24;;;;;;;4.57;2.95;;;;;;;;;;5018673;28;59288;-81
2024/03/01 09:47:08;;;;;;;4.65;4.25;;;;;;;;;;5015770;28;59349;-81
2024/03/01 09:49:44;;;;;;;4.30;3.08;;;;;;;;;;5015223;28;59315;-81
2024/03/01 09:52:35;;;;;;;4.05;2.85;;;;;;;;;;5016003;28;59342;-81
2024/03/01 09:55:04;;;;;;;3.17;2.40;;;;;;;;;;5015937;28;60185;-80
2024/03/01 09:57:34;;;;;;;3.60;2.92;;;;;;;;;;5019262;28;59331;-81
2024/03/01 10:00:08;;;;;;;3.28;2.92;;;;;;;;;;5024469;28;59410;-81
2024/03/01 10:02:39;;;;;;;3.25;2.83;;;;;;;;;;5029610;28;59244;-81
2024/03/01 10:05:11;;;;;;;2.90;2.60;;;;;;;;;;5031712;28;59297;-80
2024/03/01 10:07:39;;;;;;;5.70;3.85;;;;;;;;;;5029805;27;59659;-80
2024/03/01 10:10:13;;;;;;;2.88;2.60;;;;;;;;;;5020987;28;60312;-81
2024/03/01 10:12:47;;;;;;;2.25;2.05;;;;;;;;;;5025076;28;59204;-81
2024/03/01 10:15:24;;;;;;;3.22;2.90;;;;;;;;;;5026295;28;60691;-82
2024/03/01 10:18:01;;;;;;;2.78;2.58;;;;;;;;;;5019573;28;59235;-82
2024/03/01 10:20:51;;;;;;;3.70;2.70;;;;;;;;;;5019619;28;60178;-81
2024/03/01 10:23:24;;;;;;;2.75;2.38;;;;;;;;;;5028666;28;64207;-81
2024/03/01 10:25:49;;;;;;;2.75;2.47;;;;;;;;;;5031677;28;59242;-82
2024/03/01 10:28:22;;;;;;;2.80;2.60;;;;;;;;;;5030916;28;60391;-82
2024/03/01 10:31:07;;;;;;;2.22;2.03;;;;;;;;;;5028481;27;58572;-81
2024/03/01 10:33:44;;;;;;;3.40;2.15;;;;;;;;;;5030195;28;59250;-82
2024/03/01 10:36:16;;;;;;;2.28;2.08;;;;;;;;;;5026565;28;60568;-81
2024/03/01 10:38:56;;;;;;;3.17;2.15;;;;;;;;;;5017073;28;60088;-82
2024/03/01 10:41:38;;;;;;;2.80;2.60;;;;;;;;;;5030442;28;59200;-82
2024/03/01 10:44:29;;;;;;;3.03;2.72;;;;;;;;;;5029640;28;63401;-82
2024/03/01 10:46:58;;;;;;;2.58;2.28;;;;;;;;;;5027062;28;59165;-81
2024/03/01 10:49:46;;;;;;;2.60;2.28;;;;;;;;;;5025590;28;60421;-82
2024/03/01 10:52:11;;;;;;;;;;;;;;;;;;5028433;28;59283;-82
2024/03/01 10:54:37;;;;;;;2.70;2.47;;;;;;;;;;5026339;28;59306;-82
2024/03/01 10:57:05;;;;;;;2.17;1.75;;;;;;;;;;5023321;28;60178;-81
2024/03/01 10:59:35;;;;;;;2.00;1.60;;;;;;;;;;5027227;28;59213;-82
2024/03/01 11:02:05;;;;;;;2.22;2.03;;;;;;;;;;5020346;28;59206;-82
2024/03/01 11:04:36;;;;;;;2.58;2.00;;;;;;;;;;5019348;28;60222;-82
2024/03/01 11:07:11;;;;;;;2.22;1.50;;;;;;;;;;5026112;28;59463;-80
2024/03/01 11:09:53;;;;;;;1.58;1.42;;;;;;;;;;5027110;28;59389;-82
2024/03/01 11:12:23;;;;;;;2.28;1.95;;;;;;;;;;5018805;28;59228;-82
2024/03/01 11:14:51;;;;;;;2.08;1.65;;;;;;;;;;5031199;27;59193;-82
2024/03/01 11:17:16;;;;;;;1.55;1.45;;;;;;;;;;5029883;28;59188;-82
2024/03/01 11:19:44;;;;;;;1.50;1.40;;;;;;;;;;5020803;28;59091;-81
2024/03/01 11:22:16;;;;;;;1.95;1.70;;;;;;;;;;5018489;28;59164;-82
2024/03/01 11:24:43;;;;;;;2.13;1.50;;;;;;;;;;5023606;28;59262;-81
2024/03/01 11:27:11;;;;;;;3.22;1.42;;;;;;;;;;5028506;28;59356;-82
2024/03/01 11:29:45;;;;;;;1.50;1.40;;;;;;;;;;5028167;27;60413;-82
2024/03/01 11:32:14;;;;;;;1.27;1.13;;;;;;;;;;5028318;28;59293;-82
2024/03/01 11:35:15;;;;;;;1.30;1.20;;;;;;;;;;5019040;28;59287;-82
2024/03/01 11:38:05;;;;;;;1.17;1.08;;;;;;;;;;4978598;28;60201;-82
2024/03/01 11:40:37;;;;;;;1.55;1.45;;;;;;;;;;5021103;28;59688;-82
2024/03/01 11:43:07;;;;;;;1.80;1.70;;;;;;;;;;5028156;28;59353;-81
2024/03/01 11:45:35;;;;;;;1.73;1.20;;;;;;;;;;5024886;28;60211;-81
2024/03/01 11:48:00;;;;;;;;;;;;;;;;;;5017725;28;59211;-82
2024/03/01 11:50:37;;;;;;;1.73;1.10;;;;;;;;;;5022932;28;59278;-82
2024/03/01 11:53:04;;;;;;;1.70;1.10;;;;;;;;;;5026819;28;65131;-82
2024/03/01 11:55:51;;;;;;;1.33;1.23;;;;;;;;;;5021550;28;59491;-81
2024/03/01 11:58:33;;;;;;;1.20;1.10;;;;;;;;;;5016539;28;60451;-82
2024/03/01 12:00:58;;;;;;;1.20;1.10;;;;;;;;;;5016067;28;59302;-80
2024/03/01 12:03:49;;;;;;;2.35;1.17;;;;;;;;;;5020610;28;59298;-78
2024/03/01 12:06:23;;;;;;;1.05;1.00;;;;;;;;;;5021381;28;59523;-82
2024/03/01 12:08:55;;;;;;;2.08;1.33;;;;;;;;;;5015930;28;59927;-83
2024/03/01 12:11:38;;;;;;;1.42;0.90;;;;;;;;;;5028010;28;59245;-81
2024/03/01 12:14:05;;;;;;;0.95;0.95;;;;;;;;;;5029760;28;63222;-82
2024/03/01 12:16:35;;;;;;;1.42;1.05;;;;;;;;;;5019111;28;59092;-81
2024/03/01 12:19:17;;;;;;;1.23;0.85;;;;;;;;;;5018596;28;60224;-80
2024/03/01 12:22:00;;;;;;;1.70;1.23;;;;;;;;;;5022198;28;60063;-80
2024/03/01 12:24:27;;;;;;;1.65;1.15;;;;;;;;;;5027253;28;59357;-84
2024/03/01 12:27:14;;;;;;;0.85;0.85;;;;;;;;;;5026260;28;59358;-81
2024/03/01 12:29:59;;;;;;;0.93;0.93;;;;;;;;;;5014649;28;59188;-83
2024/03/01 12:32:39;;;;;;;0.90;0.90;;;;;;;;;;5016515;28;58477;-79
2024/03/01 12:35:17;;;;;;;1.13;1.02;;;;;;;;;;5026630;28;66472;-77
2024/03/01 12:37:50;;;;;;;1.73;1.63;;;;;;;;;;5018301;28;59373;-79
2024/03/01 12:40:16;;;;;;;0.90;0.90;;;;;;;;;;5015841;28;59932;-79
2024/03/01 12:42:56;;;;;;;1.10;1.00;;;;;;;;;;5020378;28;59720;-83
2024/03/01 12:45:31;;;;;;;0.98;0.88;;;;;;;;;;5024469;28;59308;-81
2024/03/01 12:48:17;;;;;;;0.85;0.70;;;;;;;;;;5027875;28;60281;-84
2024/03/01 12:50:42;;;;;;;1.08;0.98;;;;;;;;;;5025758;28;59932;-80
2024/03/01 12:53:13;;;;;;;0.70;0.70;;;;;;;;;;5017531;28;59244;-82
2024/03/01 12:56:04;;;;;;;0.95;0.93;;;;;;;;;;5025812;28;60146;-81
2024/03/01 12:58:35;;;;;;;1.17;1.08;;;;;;;;;;5018625;28;59396;-80
2024/03/01 13:01:19;;;;;;;0.98;0.80;;;;;;;;;;5016320;28;60357;-81
2024/03/01 13:03:56;;;;;;;1.20;1.10;;;;;;;;;;5019757;28;59164;-82
2024/03/01 13:06:23;;;;;;;0.80;0.73;;;;;;;;;;5026490;28;59396;-81
2024/03/01 13:08:59;;;;;;;1.45;1.00;;;;;;;;;;5026309;28;59432;-81
2024/03/01 13:11:26;;;;;;;0.85;0.82;;;;;;;;;;5016829;28;59846;-82
2024/03/01 13:14:11;;;;;;;0.90;0.80;;;;;;;;;;5025975;28;59330;-82
2024/03/01 13:16:36;;;;;;;0.80;0.70;;;;;;;;;;5017070;28;61196;-81
2024/03/01 13:19:08;;;;;;;0.80;0.80;;;;;;;;;;5022043;28;60476;-82
2024/03/01 13:21:52;;;;;;;0.80;0.80;;;;;;;;;;5022540;28;59230;-82
2024/03/01 13:24:36;;;;;;;1.00;0.90;;;;;;;;;;5018158;28;59628;-82
2024/03/01 13:27:01;;;;;;;1.55;1.00;;;;;;;;;;5030418;27;59219;-81
2024/03/01 13:29:31;;;;;;;1.10;0.85;;;;;;;;;;5028827;28;60087;-81
2024/03/01 13:31:59;;;;;;;0.85;0.85;;;;;;;;;;5025719;28;64596;-80
2024/03/01 13:34:25;;;;;;;0.80;0.80;;;;;;;;;;5027058;28;59349;-81
2024/03/01 13:36:55;;;;;;;0.65;0.65;;;;;;;;;;5020743;28;60184;-81
2024/03/01 13:39:20;;;;;;;0.77;0.77;;;;;;;;;;5019609;28;59340;-82
2024/03/01 13:42:00;;;;;;;0.63;0.57;;;;;;;;;;5026830;28;59200;-82
2024/03/01 13:44:26;;;;;;;0.80;0.80;;;;;;;;;;5028377;28;60161;-82
2024/03/01 13:46:56;;;;;;;1.23;1.13;;;;;;;;;;5017964;28;59195;-81
2024/03/01 13:49:23;;;;;;;1.00;0.90;;;;;;;;;;5025165;28;59502;-82
2024/03/01 13:51:49;;;;;;;0.95;0.90;;;;;;;;;;5025863;28;60503;-82
2024/03/01 13:54:17;;;;;;;1.25;0.88;;;;;;;;;;5022838;28;59357;-81
2024/03/01 13:56:42;;;;;;;0.65;0.60;;;;;;;;;;5019801;28;60123;-81
2024/03/01 13:59:07;;;;;;;0.70;0.70;;;;;;;;;;5024469;28;59337;-82
2024/03/01 14:01:33;;;;;;;0.83;0.83;;;;;;;;;;5023263;28;59330;-82
2024/03/01 14:03:58;;;;;;;1.10;1.00;;;;;;;;;;5015252;28;60343;-82
2024/03/01 14:06:24;;;;;;;0.73;0.60;;;;;;;;;;5016065;28;59395;-81
2024/03/01 14:08:50;;;;;;;2.35;0.68;;;;;;;;;;5026205;28;60153;-81
2024/03/01 14:11:15;;;;;;;1.85;0.95;;;;;;;;;;5025183;28;59964;-81
2024/03/01 14:13:41;;;;;;;0.80;0.80;;;;;;;;;;5024546;28;59280;-81
2024/03/01 14:16:07;;;;;;;1.30;0.60;;;;;;;;;;5024169;28;60291;-82
2024/03/01 14:18:33;;;;;;;0.70;0.70;;;;;;;;;;5024523;28;59850;-82
2024/03/01 14:20:58;;;;;;;0.70;0.70;;;;;;;;;;5020605;28;59176;-82
2024/03/01 14:23:25;;;;;;;1.27;0.83;;;;;;;;;;5001634;28;60114;-81
2024/03/01 14:25:50;;;;;;;0.77;0.70;;;;;;;;;;5024539;28;59341;-82
2024/03/01 14:28:15;;;;;;;0.73;0.73;;;;;;;;;;5019001;28;60445;-82
2024/03/01 14:30:40;;;;;;;0.63;0.60;;;;;;;;;;5017973;28;59948;-81
2024/03/01 14:33:09;;;;;;;0.73;0.60;;;;;;;;;;5020481;28;59108;-82
2024/03/01 14:35:35;;;;;;;0.60;0.60;;;;;;;;;;5012847;28;61091;-82
2024/03/01 14:38:09;;;;;;;1.90;0.67;;;;;;;;;;5008224;28;59239;-81
2024/03/01 14:40:34;;;;;;;0.80;0.73;;;;;;;;;;5023708;28;59437;-81
2024/03/01 14:42:59;;;;;;;0.75;0.50;;;;;;;;;;5021009;28;59368;-81
2024/03/01 14:45:35;;;;;;;0.60;0.60;;;;;;;;;;5017005;28;59585;-81
2024/03/01 14:48:00;;;;;;;3.40;0.63;;;;;;;;;;5019466;28;59275;-81
2024/03/01 14:50:26;;;;;;;2.58;0.73;;;;;;;;;;5029514;28;59785;-79